sensor_id;sensor_type;location;lat;lon;timestamp;pressure;altitude;pressure_sealevel;temperature;humidity
45864;BME280;31579;52.354;16.974;2023-04-22T00:00:39;-47.7;;;-146.1;100.0
45864;BME280;31579;52.354;16.974;2023-04-22T00:01:43;-50.2;;;-146.1;100.0
45864;BME280;31579;52.354;16.974;2023-04-22T00:02:47;-49.3;;;-146.1;100.0
45864;BME280;31579;52.354;16.974;2023-04-22T00:03:52;-49.5;;;-146.1;100.0
45864;BME280;31579;52.354;16.974;2023-04-22T00:04:55;-50.4;;;-146.1;100.0
45864;BME280;31579;52.354;16.974;2023-04-22T00:05:59;-53.6;;;-146.1;100.0
45864;BME280;31579;52.354;16.974;2023-04-22T00:07:02;-55.9;;;-146.1;100.0
45864;BME280;31579;52.354;16.974;2023-04-22T00:08:10;-55.2;;;-146.1;100.0
45864;BME280;31579;52.354;16.974;2023-04-22T00:09:14;-53.2;;;-146.1;100.0
45864;BME280;31579;52.354;16.974;2023-04-22T00:10:18;-57.1;;;-146.1;100.0
45864;BME280;31579;52.354;16.974;2023-04-22T00:11:22;-58.0;;;-146.1;100.0
45864;BME280;31579;52.354;16.974;2023-04-22T00:12:26;-59.2;;;-146.1;100.0
45864;BME280;31579;52.354;16.974;2023-04-22T00:13:30;-59.3;;;-146.1;100.0
45864;BME280;31579;52.354;16.974;2023-04-22T00:14:34;-60.3;;;-146.1;100.0
45864;BME280;31579;52.354;16.974;2023-04-22T00:15:38;-58.0;;;-146.1;100.0
45864;BME280;31579;52.354;16.974;2023-04-22T00:16:43;-58.3;;;-146.1;100.0
45864;BME280;31579;52.354;16.974;2023-04-22T00:17:47;-63.9;;;-146.1;100.0
45864;BME280;31579;52.354;16.974;2023-04-22T00:18:50;-66.8;;;-146.1;100.0
45864;BME280;31579;52.354;16.974;2023-04-22T00:19:54;-68.4;;;-146.1;100.0
45864;BME280;31579;52.354;16.974;2023-04-22T00:20:58;-71.7;;;-146.1;100.0
45864;BME280;31579;52.354;16.974;2023-04-22T00:22:00;-80.9;;;-146.1;100.0
45864;BME280;31579;52.354;16.974;2023-04-22T00:23:05;-76.9;;;-146.1;100.0
45864;BME280;31579;52.354;16.974;2023-04-22T00:24:09;-78.5;;;-146.1;100.0
45864;BME280;31579;52.354;16.974;2023-04-22T00:25:14;-80.0;;;-146.1;100.0
45864;BME280;31579;52.354;16.974;2023-04-22T00:26:17;-82.2;;;-146.1;100.0
45864;BME280;31579;52.354;16.974;2023-04-22T00:27:21;-84.8;;;-146.1;100.0
45864;BME280;31579;52.354;16.974;2023-04-22T00:28:25;-88.9;;;-146.1;100.0
45864;BME280;31579;52.354;16.974;2023-04-22T00:29:30;-93.6;;;-146.1;100.0
45864;BME280;31579;52.354;16.974;2023-04-22T00:30:34;-95.7;;;-146.1;100.0
45864;BME280;31579;52.354;16.974;2023-04-22T00:31:38;-96.5;;;-146.1;100.0
45864;BME280;31579;52.354;16.974;2023-04-22T00:32:42;-98.7;;;-146.1;100.0
45864;BME280;31579;52.354;16.974;2023-04-22T00:33:46;-100.0;;;-146.1;100.0
45864;BME280;31579;52.354;16.974;2023-04-22T00:34:50;-102.0;;;-146.1;100.0
45864;BME280;31579;52.354;16.974;2023-04-22T00:35:54;-105.4;;;-146.1;100.0
45864;BME280;31579;52.354;16.974;2023-04-22T00:36:58;-108.7;;;-146.1;100.0
45864;BME280;31579;52.354;16.974;2023-04-22T00:38:00;-115.2;;;-146.1;100.0
45864;BME280;31579;52.354;16.974;2023-04-22T00:39:05;-113.9;;;-146.1;100.0
45864;BME280;31579;52.354;16.974;2023-04-22T00:40:10;-113.7;;;-146.1;100.0
45864;BME280;31579;52.354;16.974;2023-04-22T00:41:13;-112.6;;;-146.1;100.0
45864;BME280;31579;52.354;16.974;2023-04-22T00:42:17;-111.0;;;-146.1;100.0
45864;BME280;31579;52.354;16.974;2023-04-22T00:43:21;-108.2;;;-146.1;100.0
45864;BME280;31579;52.354;16.974;2023-04-22T00:44:25;-105.3;;;-146.1;100.0
45864;BME280;31579;52.354;16.974;2023-04-22T00:45:30;-103.4;;;-146.1;100.0
45864;BME280;31579;52.354;16.974;2023-04-22T00:46:33;-101.9;;;-146.1;100.0
45864;BME280;31579;52.354;16.974;2023-04-22T00:47:37;-101.0;;;-146.1;100.0
45864;BME280;31579;52.354;16.974;2023-04-22T00:48:41;-101.1;;;-146.1;100.0
45864;BME280;31579;52.354;16.974;2023-04-22T00:49:45;-100.6;;;-146.1;100.0
45864;BME280;31579;52.354;16.974;2023-04-22T00:50:49;-99.5;;;-146.1;100.0
45864;BME280;31579;52.354;16.974;2023-04-22T00:51:53;-98.9;;;-146.1;100.0
45864;BME280;31579;52.354;16.974;2023-04-22T00:52:57;-97.8;;;-146.1;100.0
45864;BME280;31579;52.354;16.974;2023-04-22T00:54:01;-97.3;;;-146.1;100.0
45864;BME280;31579;52.354;16.974;2023-04-22T00:55:06;-96.9;;;-146.1;100.0
45864;BME280;31579;52.354;16.974;2023-04-22T00:56:10;-96.5;;;-146.1;100.0
45864;BME280;31579;52.354;16.974;2023-04-22T00:57:13;-96.3;;;-146.1;100.0
45864;BME280;31579;52.354;16.974;2023-04-22T00:58:17;-96.2;;;-146.1;100.0
45864;BME280;31579;52.354;16.974;2023-04-22T00:59:21;-96.6;;;-146.1;100.0
45864;BME280;31579;52.354;16.974;2023-04-22T01:00:26;-96.3;;;-146.1;100.0
45864;BME280;31579;52.354;16.974;2023-04-22T01:01:30;-96.5;;;-146.1;100.0
45864;BME280;31579;52.354;16.974;2023-04-22T01:02:34;-96.1;;;-146.1;100.0
45864;BME280;31579;52.354;16.974;2023-04-22T01:03:38;-95.0;;;-146.1;100.0
45864;BME280;31579;52.354;16.974;2023-04-22T01:04:41;-94.2;;;-146.1;100.0
45864;BME280;31579;52.354;16.974;2023-04-22T01:05:46;-94.9;;;-146.1;100.0
45864;BME280;31579;52.354;16.974;2023-04-22T01:06:51;-95.7;;;-146.1;100.0
45864;BME280;31579;52.354;16.974;2023-04-22T01:07:53;-97.9;;;-146.1;100.0
45864;BME280;31579;52.354;16.974;2023-04-22T01:08:57;-99.5;;;-146.1;100.0
45864;BME280;31579;52.354;16.974;2023-04-22T01:10:02;-101.9;;;-146.1;100.0
45864;BME280;31579;52.354;16.974;2023-04-22T01:11:05;-104.6;;;-146.1;100.0
45864;BME280;31579;52.354;16.974;2023-04-22T01:12:09;-107.3;;;-146.1;100.0
45864;BME280;31579;52.354;16.974;2023-04-22T01:13:22;-106.3;;;-146.1;100.0
45864;BME280;31579;52.354;16.974;2023-04-22T01:14:25;-108.7;;;-146.1;100.0
45864;BME280;31579;52.354;16.974;2023-04-22T01:15:29;-109.7;;;-146.1;100.0
45864;BME280;31579;52.354;16.974;2023-04-22T01:16:33;-112.2;;;-146.1;100.0
45864;BME280;31579;52.354;16.974;2023-04-22T01:17:37;-113.3;;;-146.1;100.0
45864;BME280;31579;52.354;16.974;2023-04-22T01:18:42;-115.5;;;-146.1;100.0
45864;BME280;31579;52.354;16.974;2023-04-22T01:19:47;-118.1;;;-146.1;100.0
45864;BME280;31579;52.354;16.974;2023-04-22T01:20:51;-120.2;;;-146.1;100.0
45864;BME280;31579;52.354;16.974;2023-04-22T01:21:55;-121.8;;;-146.1;100.0
45864;BME280;31579;52.354;16.974;2023-04-22T01:23:01;-122.8;;;-146.1;100.0
45864;BME280;31579;52.354;16.974;2023-04-22T01:24:04;-123.4;;;-146.1;100.0
45864;BME280;31579;52.354;16.974;2023-04-22T01:25:09;-124.0;;;-146.1;100.0
45864;BME280;31579;52.354;16.974;2023-04-22T01:26:13;-123.9;;;-146.1;100.0
45864;BME280;31579;52.354;16.974;2023-04-22T01:27:16;-125.1;;;-146.1;100.0
45864;BME280;31579;52.354;16.974;2023-04-22T01:28:18;-127.2;;;-146.1;100.0
45864;BME280;31579;52.354;16.974;2023-04-22T01:29:21;-125.4;;;-146.1;100.0
45864;BME280;31579;52.354;16.974;2023-04-22T01:30:25;-125.0;;;-146.1;100.0
45864;BME280;31579;52.354;16.974;2023-04-22T01:31:30;-124.9;;;-146.1;100.0
45864;BME280;31579;52.354;16.974;2023-04-22T01:32:34;-124.6;;;-146.1;100.0
45864;BME280;31579;52.354;16.974;2023-04-22T01:33:37;-124.0;;;-146.1;100.0
45864;BME280;31579;52.354;16.974;2023-04-22T01:34:41;-124.0;;;-146.1;100.0
45864;BME280;31579;52.354;16.974;2023-04-22T01:35:46;-123.7;;;-146.1;100.0
45864;BME280;31579;52.354;16.974;2023-04-22T01:36:49;-124.4;;;-146.1;100.0
45864;BME280;31579;52.354;16.974;2023-04-22T01:37:54;-126.1;;;-146.1;100.0
45864;BME280;31579;52.354;16.974;2023-04-22T01:38:58;-127.4;;;-146.1;100.0
45864;BME280;31579;52.354;16.974;2023-04-22T01:40:02;-128.5;;;-146.1;100.0
45864;BME280;31579;52.354;16.974;2023-04-22T01:41:06;-129.6;;;-146.1;100.0
45864;BME280;31579;52.354;16.974;2023-04-22T01:42:09;-130.6;;;-146.1;100.0
45864;BME280;31579;52.354;16.974;2023-04-22T01:43:14;-131.7;;;-146.1;100.0
45864;BME280;31579;52.354;16.974;2023-04-22T01:44:16;-135.1;;;-146.1;100.0
45864;BME280;31579;52.354;16.974;2023-04-22T01:45:21;-135.0;;;-146.1;100.0
45864;BME280;31579;52.354;16.974;2023-04-22T01:46:25;-135.6;;;-146.1;100.0
45864;BME280;31579;52.354;16.974;2023-04-22T01:47:29;-136.1;;;-146.1;100.0
45864;BME280;31579;52.354;16.974;2023-04-22T01:48:34;-136.8;;;-146.1;100.0
45864;BME280;31579;52.354;16.974;2023-04-22T01:49:37;-137.2;;;-146.1;100.0
45864;BME280;31579;52.354;16.974;2023-04-22T01:50:42;-136.8;;;-146.1;100.0
45864;BME280;31579;52.354;16.974;2023-04-22T01:51:45;-136.7;;;-146.1;100.0
45864;BME280;31579;52.354;16.974;2023-04-22T01:52:50;-136.7;;;-146.1;100.0
45864;BME280;31579;52.354;16.974;2023-04-22T01:53:53;-136.5;;;-146.1;100.0
45864;BME280;31579;52.354;16.974;2023-04-22T01:54:58;-136.7;;;-146.1;100.0
45864;BME280;31579;52.354;16.974;2023-04-22T01:56:02;-136.8;;;-146.1;100.0
45864;BME280;31579;52.354;16.974;2023-04-22T01:57:08;-136.5;;;-146.1;100.0
45864;BME280;31579;52.354;16.974;2023-04-22T01:58:10;-136.2;;;-146.1;100.0
45864;BME280;31579;52.354;16.974;2023-04-22T01:59:14;-135.9;;;-146.1;100.0
45864;BME280;31579;52.354;16.974;2023-04-22T02:00:18;-135.5;;;-146.1;100.0
45864;BME280;31579;52.354;16.974;2023-04-22T02:01:22;-135.4;;;-146.1;100.0
45864;BME280;31579;52.354;16.974;2023-04-22T02:02:26;-135.1;;;-146.1;100.0
45864;BME280;31579;52.354;16.974;2023-04-22T02:03:29;-135.1;;;-146.1;100.0
45864;BME280;31579;52.354;16.974;2023-04-22T02:04:35;-135.4;;;-146.1;100.0
45864;BME280;31579;52.354;16.974;2023-04-22T02:05:39;-136.1;;;-146.1;100.0
45864;BME280;31579;52.354;16.974;2023-04-22T02:06:43;-136.9;;;-146.1;100.0
45864;BME280;31579;52.354;16.974;2023-04-22T02:07:50;-137.7;;;-146.1;100.0
45864;BME280;31579;52.354;16.974;2023-04-22T02:08:51;-138.9;;;-146.1;100.0
45864;BME280;31579;52.354;16.974;2023-04-22T02:09:55;-139.6;;;-146.1;100.0
45864;BME280;31579;52.354;16.974;2023-04-22T02:10:59;-140.3;;;-146.1;100.0
45864;BME280;31579;52.354;16.974;2023-04-22T02:12:16;-141.0;;;-146.1;100.0
45864;BME280;31579;52.354;16.974;2023-04-22T02:13:20;-140.3;;;-146.1;100.0
45864;BME280;31579;52.354;16.974;2023-04-22T02:14:24;-139.9;;;-146.1;100.0
45864;BME280;31579;52.354;16.974;2023-04-22T02:15:28;-140.2;;;-146.1;100.0
45864;BME280;31579;52.354;16.974;2023-04-22T02:16:32;-140.3;;;-146.1;100.0
45864;BME280;31579;52.354;16.974;2023-04-22T02:17:36;-140.3;;;-146.1;100.0
45864;BME280;31579;52.354;16.974;2023-04-22T02:18:40;-140.0;;;-146.1;100.0
45864;BME280;31579;52.354;16.974;2023-04-22T02:19:44;-139.5;;;-146.1;100.0
45864;BME280;31579;52.354;16.974;2023-04-22T02:20:48;-139.3;;;-146.1;100.0
45864;BME280;31579;52.354;16.974;2023-04-22T02:21:52;-139.7;;;-146.1;100.0
45864;BME280;31579;52.354;16.974;2023-04-22T02:22:56;-140.1;;;-146.1;100.0
45864;BME280;31579;52.354;16.974;2023-04-22T02:24:00;-140.2;;;-146.1;100.0
45864;BME280;31579;52.354;16.974;2023-04-22T02:25:04;-141.2;;;-146.1;100.0
45864;BME280;31579;52.354;16.974;2023-04-22T02:26:08;-141.0;;;-146.1;100.0
45864;BME280;31579;52.354;16.974;2023-04-22T02:27:13;-140.5;;;-146.1;100.0
45864;BME280;31579;52.354;16.974;2023-04-22T02:28:18;-141.0;;;-146.1;100.0
45864;BME280;31579;52.354;16.974;2023-04-22T02:29:22;-141.2;;;-146.1;100.0
45864;BME280;31579;52.354;16.974;2023-04-22T02:30:26;-141.6;;;-146.1;100.0
45864;BME280;31579;52.354;16.974;2023-04-22T02:31:30;-141.8;;;-146.1;100.0
45864;BME280;31579;52.354;16.974;2023-04-22T02:32:34;-141.8;;;-146.1;100.0
45864;BME280;31579;52.354;16.974;2023-04-22T02:33:38;-141.6;;;-146.1;100.0
45864;BME280;31579;52.354;16.974;2023-04-22T02:34:42;-141.3;;;-146.1;100.0
45864;BME280;31579;52.354;16.974;2023-04-22T02:35:46;-141.2;;;-146.1;100.0
45864;BME280;31579;52.354;16.974;2023-04-22T02:36:50;-141.1;;;-146.1;100.0
45864;BME280;31579;52.354;16.974;2023-04-22T02:37:54;-141.5;;;-146.1;100.0
45864;BME280;31579;52.354;16.974;2023-04-22T02:38:58;-141.9;;;-146.1;100.0
45864;BME280;31579;52.354;16.974;2023-04-22T02:40:10;-141.3;;;-146.1;100.0
45864;BME280;31579;52.354;16.974;2023-04-22T02:41:14;-141.9;;;-146.1;100.0
45864;BME280;31579;52.354;16.974;2023-04-22T02:42:18;-142.3;;;-146.1;100.0
45864;BME280;31579;52.354;16.974;2023-04-22T02:43:22;-142.6;;;-146.1;100.0
45864;BME280;31579;52.354;16.974;2023-04-22T02:44:26;-142.7;;;-146.1;100.0
45864;BME280;31579;52.354;16.974;2023-04-22T02:45:30;-142.5;;;-146.1;100.0
45864;BME280;31579;52.354;16.974;2023-04-22T02:46:34;-142.4;;;-146.1;100.0
45864;BME280;31579;52.354;16.974;2023-04-22T02:47:38;-142.5;;;-146.1;100.0
45864;BME280;31579;52.354;16.974;2023-04-22T02:48:42;-142.5;;;-146.1;100.0
45864;BME280;31579;52.354;16.974;2023-04-22T02:49:46;-142.7;;;-146.1;100.0
45864;BME280;31579;52.354;16.974;2023-04-22T02:50:50;-142.5;;;-146.1;100.0
45864;BME280;31579;52.354;16.974;2023-04-22T02:51:54;-142.1;;;-146.1;100.0
45864;BME280;31579;52.354;16.974;2023-04-22T02:52:59;-141.8;;;-146.1;100.0
45864;BME280;31579;52.354;16.974;2023-04-22T02:54:07;-142.0;;;-146.1;100.0
45864;BME280;31579;52.354;16.974;2023-04-22T02:55:11;-141.6;;;-146.1;100.0
45864;BME280;31579;52.354;16.974;2023-04-22T02:56:15;-141.5;;;-146.1;100.0
45864;BME280;31579;52.354;16.974;2023-04-22T02:57:19;-141.6;;;-146.1;100.0
45864;BME280;31579;52.354;16.974;2023-04-22T02:58:23;-141.6;;;-146.1;100.0
45864;BME280;31579;52.354;16.974;2023-04-22T02:59:27;-141.9;;;-146.1;100.0
45864;BME280;31579;52.354;16.974;2023-04-22T03:00:31;-142.5;;;-146.1;100.0
45864;BME280;31579;52.354;16.974;2023-04-22T03:01:35;-143.1;;;-146.1;100.0
45864;BME280;31579;52.354;16.974;2023-04-22T03:02:39;-143.6;;;-146.1;100.0
45864;BME280;31579;52.354;16.974;2023-04-22T03:03:43;-144.1;;;-146.1;100.0
45864;BME280;31579;52.354;16.974;2023-04-22T03:04:47;-144.5;;;-146.1;100.0
45864;BME280;31579;52.354;16.974;2023-04-22T03:05:51;-144.7;;;-146.1;100.0
45864;BME280;31579;52.354;16.974;2023-04-22T03:06:55;-145.1;;;-146.1;100.0
45864;BME280;31579;52.354;16.974;2023-04-22T03:07:59;-145.5;;;-146.1;100.0
45864;BME280;31579;52.354;16.974;2023-04-22T03:09:01;-133.2;;;-146.1;100.0
45864;BME280;31579;52.354;16.974;2023-04-22T03:10:06;-146.2;;;-146.1;100.0
45864;BME280;31579;52.354;16.974;2023-04-22T03:11:10;-146.8;;;-146.1;100.0
45864;BME280;31579;52.354;16.974;2023-04-22T03:12:14;-147.1;;;-146.1;100.0
45864;BME280;31579;52.354;16.974;2023-04-22T03:13:18;-147.3;;;-146.1;100.0
45864;BME280;31579;52.354;16.974;2023-04-22T03:14:22;-147.6;;;-146.1;100.0
45864;BME280;31579;52.354;16.974;2023-04-22T03:15:26;-147.6;;;-146.1;100.0
45864;BME280;31579;52.354;16.974;2023-04-22T03:16:31;-147.9;;;-146.1;100.0
45864;BME280;31579;52.354;16.974;2023-04-22T03:17:34;-147.9;;;-146.1;100.0
45864;BME280;31579;52.354;16.974;2023-04-22T03:18:38;-148.1;;;-146.1;100.0
45864;BME280;31579;52.354;16.974;2023-04-22T03:19:42;-148.2;;;-146.1;100.0
45864;BME280;31579;52.354;16.974;2023-04-22T03:20:46;-148.1;;;-146.1;100.0
45864;BME280;31579;52.354;16.974;2023-04-22T03:21:50;-147.8;;;-146.1;100.0
45864;BME280;31579;52.354;16.974;2023-04-22T03:22:54;-147.4;;;-146.1;100.0
45864;BME280;31579;52.354;16.974;2023-04-22T03:23:58;-147.0;;;-146.1;100.0
45864;BME280;31579;52.354;16.974;2023-04-22T03:25:02;-146.5;;;-146.1;100.0
45864;BME280;31579;52.354;16.974;2023-04-22T03:26:06;-146.1;;;-146.1;100.0
45864;BME280;31579;52.354;16.974;2023-04-22T03:27:10;-145.9;;;-146.1;100.0
45864;BME280;31579;52.354;16.974;2023-04-22T03:28:14;-145.6;;;-146.1;100.0
45864;BME280;31579;52.354;16.974;2023-04-22T03:29:18;-145.1;;;-146.1;100.0
45864;BME280;31579;52.354;16.974;2023-04-22T03:30:22;-144.5;;;-146.1;100.0
45864;BME280;31579;52.354;16.974;2023-04-22T03:31:26;-143.8;;;-146.1;100.0
45864;BME280;31579;52.354;16.974;2023-04-22T03:32:30;-143.4;;;-146.1;100.0
45864;BME280;31579;52.354;16.974;2023-04-22T03:33:34;-143.2;;;-146.1;100.0
45864;BME280;31579;52.354;16.974;2023-04-22T03:34:38;-143.4;;;-146.1;100.0
45864;BME280;31579;52.354;16.974;2023-04-22T03:35:42;-143.4;;;-146.1;100.0
45864;BME280;31579;52.354;16.974;2023-04-22T03:36:46;-143.4;;;-146.1;100.0
45864;BME280;31579;52.354;16.974;2023-04-22T03:37:50;-143.4;;;-146.1;100.0
45864;BME280;31579;52.354;16.974;2023-04-22T03:38:54;-143.5;;;-146.1;100.0
45864;BME280;31579;52.354;16.974;2023-04-22T03:39:58;-143.7;;;-146.1;100.0
45864;BME280;31579;52.354;16.974;2023-04-22T03:41:02;-143.7;;;-146.1;100.0
45864;BME280;31579;52.354;16.974;2023-04-22T03:42:06;-144.4;;;-146.1;100.0
45864;BME280;31579;52.354;16.974;2023-04-22T03:43:10;-144.8;;;-146.1;100.0
45864;BME280;31579;52.354;16.974;2023-04-22T03:44:14;-145.1;;;-146.1;100.0
45864;BME280;31579;52.354;16.974;2023-04-22T03:45:18;-145.4;;;-146.1;100.0
45864;BME280;31579;52.354;16.974;2023-04-22T03:46:22;-145.3;;;-146.1;100.0
45864;BME280;31579;52.354;16.974;2023-04-22T03:47:26;-145.4;;;-146.1;100.0
45864;BME280;31579;52.354;16.974;2023-04-22T03:48:43;-145.8;;;-146.1;100.0
45864;BME280;31579;52.354;16.974;2023-04-22T03:49:47;-146.2;;;-146.1;100.0
45864;BME280;31579;52.354;16.974;2023-04-22T03:50:51;-146.5;;;-146.1;100.0
45864;BME280;31579;52.354;16.974;2023-04-22T03:51:55;-146.7;;;-146.1;100.0
45864;BME280;31579;52.354;16.974;2023-04-22T03:53:00;-146.8;;;-146.1;100.0
45864;BME280;31579;52.354;16.974;2023-04-22T03:54:05;-146.3;;;-146.1;100.0
45864;BME280;31579;52.354;16.974;2023-04-22T03:55:10;-146.1;;;-146.1;100.0
45864;BME280;31579;52.354;16.974;2023-04-22T03:56:14;-146.0;;;-146.1;100.0
45864;BME280;31579;52.354;16.974;2023-04-22T03:57:18;-146.0;;;-146.1;100.0
45864;BME280;31579;52.354;16.974;2023-04-22T03:58:23;-145.9;;;-146.1;100.0
45864;BME280;31579;52.354;16.974;2023-04-22T03:59:27;-145.9;;;-146.1;100.0
45864;BME280;31579;52.354;16.974;2023-04-22T04:00:31;-145.8;;;-146.1;100.0
45864;BME280;31579;52.354;16.974;2023-04-22T04:01:36;-145.3;;;-146.1;100.0
45864;BME280;31579;52.354;16.974;2023-04-22T04:02:39;-123.2;;;-146.1;100.0
45864;BME280;31579;52.354;16.974;2023-04-22T04:03:40;-102.4;;;-146.1;100.0
45864;BME280;31579;52.354;16.974;2023-04-22T04:04:44;-130.6;;;-146.1;100.0
45864;BME280;31579;52.354;16.974;2023-04-22T04:05:48;-133.2;;;-146.1;100.0
45864;BME280;31579;52.354;16.974;2023-04-22T04:06:52;-134.5;;;-146.1;100.0
45864;BME280;31579;52.354;16.974;2023-04-22T04:07:56;-135.9;;;-146.1;100.0
45864;BME280;31579;52.354;16.974;2023-04-22T04:09:01;-136.7;;;-146.1;100.0
45864;BME280;31579;52.354;16.974;2023-04-22T04:10:04;-122.1;;;-146.1;100.0
45864;BME280;31579;52.354;16.974;2023-04-22T04:11:08;-132.2;;;-146.1;100.0
45864;BME280;31579;52.354;16.974;2023-04-22T04:12:11;-134.1;;;-146.1;100.0
45864;BME280;31579;52.354;16.974;2023-04-22T04:13:15;-131.8;;;-146.1;100.0
45864;BME280;31579;52.354;16.974;2023-04-22T04:14:20;-132.5;;;-146.1;100.0
45864;BME280;31579;52.354;16.974;2023-04-22T04:15:23;-132.7;;;-146.1;100.0
45864;BME280;31579;52.354;16.974;2023-04-22T04:16:27;-133.1;;;-146.1;100.0
45864;BME280;31579;52.354;16.974;2023-04-22T04:17:31;-133.1;;;-146.1;100.0
45864;BME280;31579;52.354;16.974;2023-04-22T04:18:35;-133.3;;;-146.1;100.0
45864;BME280;31579;52.354;16.974;2023-04-22T04:19:39;-116.5;;;-146.1;100.0
45864;BME280;31579;52.354;16.974;2023-04-22T04:20:43;-125.4;;;-146.1;100.0
45864;BME280;31579;52.354;16.974;2023-04-22T04:21:47;-125.9;;;-146.1;100.0
45864;BME280;31579;52.354;16.974;2023-04-22T04:22:51;-125.9;;;-146.1;100.0
45864;BME280;31579;52.354;16.974;2023-04-22T04:23:55;-126.6;;;-146.1;100.0
45864;BME280;31579;52.354;16.974;2023-04-22T04:24:59;-124.6;;;-146.1;100.0
45864;BME280;31579;52.354;16.974;2023-04-22T04:26:04;-123.0;;;-146.1;100.0
45864;BME280;31579;52.354;16.974;2023-04-22T04:27:07;-121.7;;;-146.1;100.0
45864;BME280;31579;52.354;16.974;2023-04-22T04:28:12;-120.6;;;-146.1;100.0
45864;BME280;31579;52.354;16.974;2023-04-22T04:29:15;-116.4;;;-146.1;100.0
45864;BME280;31579;52.354;16.974;2023-04-22T04:30:19;-110.8;;;-146.1;100.0
45864;BME280;31579;52.354;16.974;2023-04-22T04:31:23;-104.3;;;-146.1;100.0
45864;BME280;31579;52.354;16.974;2023-04-22T04:32:27;-97.7;;;-146.1;100.0
45864;BME280;31579;52.354;16.974;2023-04-22T04:33:31;-95.5;;;-146.1;100.0
45864;BME280;31579;52.354;16.974;2023-04-22T04:34:35;-91.1;;;-146.1;100.0
45864;BME280;31579;52.354;16.974;2023-04-22T04:35:39;-68.6;;;-146.1;100.0
45864;BME280;31579;52.354;16.974;2023-04-22T04:36:43;-87.6;;;-146.1;100.0
45864;BME280;31579;52.354;16.974;2023-04-22T04:37:48;-94.3;;;-146.1;100.0
45864;BME280;31579;52.354;16.974;2023-04-22T04:38:51;-98.2;;;-146.1;100.0
45864;BME280;31579;52.354;16.974;2023-04-22T04:39:55;-91.8;;;-146.1;100.0
45864;BME280;31579;52.354;16.974;2023-04-22T04:40:59;-75.4;;;-146.1;100.0
45864;BME280;31579;52.354;16.974;2023-04-22T04:42:04;-43.6;;;-146.1;100.0
45864;BME280;31579;52.354;16.974;2023-04-22T04:43:08;-21.4;;;-146.1;100.0
45864;BME280;31579;52.354;16.974;2023-04-22T04:44:11;27.7;;;-146.1;100.0
45864;BME280;31579;52.354;16.974;2023-04-22T04:45:15;42.2;;;-146.1;100.0
45864;BME280;31579;52.354;16.974;2023-04-22T04:46:19;47.4;;;-146.1;100.0
45864;BME280;31579;52.354;16.974;2023-04-22T04:47:24;85.0;;;-146.1;100.0
45864;BME280;31579;52.354;16.974;2023-04-22T04:48:27;175.8;;;-146.1;100.0
45864;BME280;31579;52.354;16.974;2023-04-22T04:49:31;207.5;;;-146.1;100.0
45864;BME280;31579;52.354;16.974;2023-04-22T04:50:35;425.7;;;-146.1;100.0
45864;BME280;31579;52.354;16.974;2023-04-22T04:51:38;526.7;;;-146.1;100.0
45864;BME280;31579;52.354;16.974;2023-04-22T04:52:49;1047.8;;;-146.1;100.0
45864;BME280;31579;52.354;16.974;2023-04-22T04:53:53;1122.4;;;-146.1;100.0
45864;BME280;31579;52.354;16.974;2023-04-22T04:54:57;1121.9;;;-146.1;100.0
45864;BME280;31579;52.354;16.974;2023-04-22T04:56:01;1123.9;;;-146.1;100.0
45864;BME280;31579;52.354;16.974;2023-04-22T04:57:06;1117.8;;;-146.1;100.0
45864;BME280;31579;52.354;16.974;2023-04-22T04:58:10;1113.8;;;-146.1;100.0
45864;BME280;31579;52.354;16.974;2023-04-22T04:59:14;1106.7;;;-146.1;100.0
45864;BME280;31579;52.354;16.974;2023-04-22T05:00:18;1105.8;;;-146.1;100.0
45864;BME280;31579;52.354;16.974;2023-04-22T05:01:22;1096.8;;;-146.1;100.0
45864;BME280;31579;52.354;16.974;2023-04-22T05:02:26;1095.7;;;-146.1;100.0
45864;BME280;31579;52.354;16.974;2023-04-22T05:03:30;1089.4;;;-146.1;100.0
45864;BME280;31579;52.354;16.974;2023-04-22T05:04:34;1082.7;;;-146.1;100.0
45864;BME280;31579;52.354;16.974;2023-04-22T05:05:38;1083.7;;;-146.1;100.0
45864;BME280;31579;52.354;16.974;2023-04-22T05:06:42;1083.5;;;-146.1;100.0
45864;BME280;31579;52.354;16.974;2023-04-22T05:07:46;1080.3;;;-146.1;100.0
45864;BME280;31579;52.354;16.974;2023-04-22T05:08:50;1084.0;;;-146.1;100.0
45864;BME280;31579;52.354;16.974;2023-04-22T05:09:54;1080.1;;;-146.1;100.0
45864;BME280;31579;52.354;16.974;2023-04-22T05:10:59;1070.7;;;-146.1;100.0
45864;BME280;31579;52.354;16.974;2023-04-22T05:12:01;1080.9;;;-146.1;100.0
45864;BME280;31579;52.354;16.974;2023-04-22T05:13:04;1078.0;;;-146.1;100.0
45864;BME280;31579;52.354;16.974;2023-04-22T05:14:08;1065.9;;;-146.1;100.0
45864;BME280;31579;52.354;16.974;2023-04-22T05:15:12;1066.2;;;-146.1;100.0
45864;BME280;31579;52.354;16.974;2023-04-22T05:16:16;1063.1;;;-146.1;100.0
45864;BME280;31579;52.354;16.974;2023-04-22T05:17:20;1069.7;;;-146.1;100.0
45864;BME280;31579;52.354;16.974;2023-04-22T05:18:24;1066.2;;;-146.1;100.0
45864;BME280;31579;52.354;16.974;2023-04-22T05:19:28;1056.8;;;-146.1;100.0
45864;BME280;31579;52.354;16.974;2023-04-22T05:20:32;1041.5;;;-146.1;100.0
45864;BME280;31579;52.354;16.974;2023-04-22T05:21:36;1051.1;;;-146.1;100.0
45864;BME280;31579;52.354;16.974;2023-04-22T05:22:40;1048.2;;;-146.1;100.0
45864;BME280;31579;52.354;16.974;2023-04-22T05:23:44;1022.4;;;-146.1;100.0
45864;BME280;31579;52.354;16.974;2023-04-22T05:24:48;1020.0;;;-146.1;100.0
45864;BME280;31579;52.354;16.974;2023-04-22T05:26:05;1016.9;;;-146.1;100.0
45864;BME280;31579;52.354;16.974;2023-04-22T05:27:09;1010.9;;;-146.1;100.0
45864;BME280;31579;52.354;16.974;2023-04-22T05:28:13;996.1;;;-146.1;100.0
45864;BME280;31579;52.354;16.974;2023-04-22T05:29:15;1044.2;;;-146.1;100.0
45864;BME280;31579;52.354;16.974;2023-04-22T05:30:20;1010.0;;;-146.1;100.0
45864;BME280;31579;52.354;16.974;2023-04-22T05:31:24;1004.7;;;-146.1;100.0
45864;BME280;31579;52.354;16.974;2023-04-22T05:32:28;996.4;;;-146.1;100.0
45864;BME280;31579;52.354;16.974;2023-04-22T05:33:32;1006.6;;;-146.1;100.0
45864;BME280;31579;52.354;16.974;2023-04-22T05:34:36;1032.5;;;-146.1;100.0
45864;BME280;31579;52.354;16.974;2023-04-22T05:35:40;1020.0;;;-146.1;100.0
45864;BME280;31579;52.354;16.974;2023-04-22T05:36:44;1005.4;;;-146.1;100.0
45864;BME280;31579;52.354;16.974;2023-04-22T05:37:48;1013.6;;;-146.1;100.0
45864;BME280;31579;52.354;16.974;2023-04-22T05:38:52;1006.9;;;-146.1;100.0
45864;BME280;31579;52.354;16.974;2023-04-22T05:39:56;1011.2;;;-146.1;100.0
45864;BME280;31579;52.354;16.974;2023-04-22T05:41:01;978.9;;;-146.1;100.0